createdAt,value
2022-11-22T00:00:21.284Z,1.01
2022-11-22T00:03:43.247Z,0.93
2022-11-22T00:07:04.833Z,0.84
2022-11-22T00:10:08.118Z,0.76
2022-11-22T00:13:09.940Z,0.67
2022-11-22T00:16:11.545Z,0.55
2022-11-22T00:19:13.303Z,0.41
2022-11-22T00:22:15.633Z,0.33
2022-11-22T00:25:17.355Z,0.25
2022-11-22T00:28:22.217Z,0.16
2022-11-22T00:31:24.116Z,0.07
2022-11-22T00:34:26.018Z,-0.02
2022-11-22T00:37:27.730Z,-0.18
2022-11-22T00:40:29.411Z,-0.31
2022-11-22T00:43:31.604Z,-0.41
2022-11-22T00:46:33.312Z,-0.49
2022-11-22T00:49:34.932Z,-0.58
2022-11-22T00:52:36.579Z,-0.66
2022-11-22T00:55:38.332Z,-0.75
2022-11-22T00:58:39.946Z,-0.83
2022-11-22T01:01:41.794Z,-0.88
2022-11-22T01:04:43.673Z,-0.96
2022-11-22T01:07:45.541Z,-1.05
2022-11-22T01:10:47.147Z,-1.13
2022-11-22T01:13:48.882Z,-1.19
2022-11-22T01:16:50.599Z,-1.24
2022-11-22T01:19:52.596Z,-1.30
2022-11-22T01:22:54.165Z,-1.35
2022-11-22T01:25:56.030Z,-1.41
2022-11-22T01:28:57.538Z,-1.47
2022-11-22T01:31:59.462Z,-1.55
2022-11-22T01:35:00.994Z,-1.64
2022-11-22T01:38:03.173Z,-1.71
2022-11-22T01:41:04.947Z,-1.75
2022-11-22T01:44:20.371Z,-1.79
2022-11-22T01:47:24.895Z,-1.84
2022-11-22T01:50:28.200Z,-1.90
2022-11-22T01:53:34.492Z,-1.92
2022-11-22T01:56:36.804Z,-1.96
2022-11-22T01:59:42.471Z,-2.00
2022-11-22T02:02:51.813Z,-2.03
2022-11-22T02:05:53.919Z,-2.05
2022-11-22T02:09:02.024Z,-2.08
2022-11-22T02:12:05.548Z,-2.10
2022-11-22T02:15:08.200Z,-2.13
2022-11-22T02:18:09.942Z,-2.21
2022-11-22T02:21:12.028Z,-2.29
2022-11-22T02:24:20.176Z,-2.33
2022-11-22T02:27:23.129Z,-2.36
2022-11-22T02:30:25.100Z,-2.36
2022-11-22T02:33:26.998Z,-2.34
2022-11-22T02:36:28.872Z,-2.33
2022-11-22T02:39:31.892Z,-2.33
2022-11-22T02:42:34.024Z,-2.34
2022-11-22T02:45:35.826Z,-2.35
2022-11-22T02:48:42.058Z,-2.39
2022-11-22T02:51:43.909Z,-2.46
2022-11-22T02:54:46.200Z,-2.44
2022-11-22T02:57:47.994Z,-2.44
2022-11-22T03:00:49.655Z,-2.46
2022-11-22T03:03:51.312Z,-2.48
2022-11-22T03:06:57.769Z,-2.54
2022-11-22T03:09:59.813Z,-2.58
2022-11-22T03:13:01.582Z,-2.61
2022-11-22T03:16:03.297Z,-2.66
2022-11-22T03:19:04.937Z,-2.71
2022-11-22T03:22:06.756Z,-2.76
2022-11-22T03:25:08.491Z,-2.82
2022-11-22T03:28:10.150Z,-2.86
2022-11-22T03:31:12.124Z,-2.89
2022-11-22T03:34:14.259Z,-2.90
2022-11-22T03:37:16.060Z,-2.94
2022-11-22T03:40:17.703Z,-2.97
2022-11-22T03:43:19.494Z,-3.04
2022-11-22T03:46:21.171Z,-3.07
2022-11-22T03:49:22.986Z,-3.12
2022-11-22T03:52:24.768Z,-3.16
2022-11-22T03:55:26.502Z,-3.20
2022-11-22T03:58:28.478Z,-3.25
2022-11-22T04:01:30.265Z,-3.27
2022-11-22T04:04:31.915Z,-3.26
2022-11-22T04:07:33.815Z,-3.25
2022-11-22T04:10:35.540Z,-3.25
2022-11-22T04:13:55.973Z,-3.27
2022-11-22T04:16:57.720Z,-3.28
2022-11-22T04:20:18.388Z,-3.27
2022-11-22T04:23:22.223Z,-3.26
2022-11-22T04:26:23.780Z,-3.25
2022-11-22T04:29:25.636Z,-3.26
2022-11-22T04:32:45.674Z,-3.27
2022-11-22T04:35:51.219Z,-3.29
2022-11-22T04:38:52.919Z,-3.30
2022-11-22T04:42:14.697Z,-3.31
2022-11-22T04:45:16.765Z,-3.32
2022-11-22T04:48:18.655Z,-3.33
2022-11-22T04:51:39.297Z,-3.35
2022-11-22T04:54:40.858Z,-3.38
2022-11-22T04:57:42.534Z,-3.40
2022-11-22T05:00:44.474Z,-3.39
2022-11-22T05:03:46.326Z,-3.40
2022-11-22T05:06:47.986Z,-3.52
2022-11-22T05:09:49.825Z,-3.76
2022-11-22T05:12:51.566Z,-3.86
2022-11-22T05:15:53.382Z,-3.91
2022-11-22T05:19:00.921Z,-3.93
2022-11-22T05:22:02.664Z,-4.03
2022-11-22T05:25:04.601Z,-4.29
2022-11-22T05:28:06.473Z,-4.44
2022-11-22T05:31:09.925Z,-4.52
2022-11-22T05:34:11.592Z,-4.45
2022-11-22T05:37:13.398Z,-4.26
2022-11-22T05:40:15.343Z,-4.15
2022-11-22T05:43:17.107Z,-4.32
2022-11-22T05:46:24.734Z,-4.42
2022-11-22T05:49:27.306Z,-4.51
2022-11-22T05:52:29.206Z,-4.53
2022-11-22T05:55:30.897Z,-4.55
2022-11-22T05:58:32.794Z,-4.63
2022-11-22T06:01:34.574Z,-4.74
2022-11-22T06:04:39.388Z,-4.83
2022-11-22T06:07:41.040Z,-4.84
2022-11-22T06:10:42.757Z,-4.66
2022-11-22T06:13:45.725Z,-4.41
2022-11-22T06:16:47.332Z,-4.44
2022-11-22T06:19:48.985Z,-4.48
2022-11-22T06:22:50.691Z,-4.45
2022-11-22T06:25:59.344Z,-4.43
2022-11-22T06:29:01.015Z,-4.19
2022-11-22T06:32:04.009Z,-3.97
2022-11-22T06:35:06.368Z,-3.73
2022-11-22T06:38:08.277Z,-3.79
2022-11-22T06:41:12.194Z,-3.70
2022-11-22T06:44:13.952Z,-3.28
2022-11-22T06:47:17.592Z,-2.93
2022-11-22T06:50:21.891Z,-2.59
2022-11-22T06:53:45.775Z,-2.18
2022-11-22T06:56:45.761Z,-1.91
2022-11-22T06:59:47.267Z,-1.61
2022-11-22T07:02:49.032Z,-1.33
2022-11-22T07:05:51.631Z,-1.09
2022-11-22T07:08:53.540Z,-0.93
2022-11-22T07:11:55.355Z,-0.64
2022-11-22T07:14:56.975Z,-0.42
2022-11-22T07:17:58.635Z,-0.44
2022-11-22T07:21:14.701Z,-0.37
2022-11-22T07:24:16.647Z,-0.26
2022-11-22T07:27:18.285Z,-0.05
2022-11-22T07:30:20.253Z,0.21
2022-11-22T07:33:22.105Z,0.35
2022-11-22T07:36:24.324Z,0.45
2022-11-22T07:39:25.886Z,0.67
2022-11-22T07:42:27.571Z,1.03
2022-11-22T07:45:29.205Z,1.30
2022-11-22T07:48:30.807Z,1.40
2022-11-22T07:51:32.566Z,1.40
2022-11-22T07:54:34.084Z,1.38
2022-11-22T07:57:36.040Z,1.39
2022-11-22T08:00:37.843Z,1.39
2022-11-22T08:03:39.693Z,1.42
2022-11-22T08:06:41.729Z,1.48
2022-11-22T08:09:43.469Z,1.57
2022-11-22T08:12:45.046Z,1.70
2022-11-22T08:15:49.742Z,1.85
2022-11-22T08:18:51.997Z,2.04
2022-11-22T08:21:58.468Z,2.20
2022-11-22T08:25:00.627Z,2.35
2022-11-22T08:28:02.276Z,2.52
2022-11-22T08:31:08.553Z,2.60
2022-11-22T08:34:10.424Z,2.83
2022-11-22T08:37:12.292Z,3.57
2022-11-22T08:40:14.053Z,4.60
2022-11-22T08:43:15.714Z,5.63
2022-11-22T08:46:18.185Z,6.42
2022-11-22T08:49:19.966Z,7.14
2022-11-22T08:52:21.728Z,8.02
2022-11-22T08:55:23.841Z,8.75
2022-11-22T08:58:25.674Z,9.61
2022-11-22T09:01:27.401Z,10.06
2022-11-22T09:04:29.345Z,10.22
2022-11-22T09:10:52.767Z,11.53
2022-11-22T09:13:55.676Z,12.17
2022-11-22T09:16:57.398Z,12.77
2022-11-22T09:19:59.212Z,13.38
2022-11-22T09:23:02.357Z,13.91
2022-11-22T09:26:09.879Z,13.98
2022-11-22T09:29:11.683Z,13.23
2022-11-22T09:32:13.464Z,13.88
2022-11-22T09:35:17.361Z,14.55
2022-11-22T09:38:19.465Z,14.92
2022-11-22T09:41:43.151Z,14.97
2022-11-22T09:45:19.115Z,14.40
2022-11-22T09:48:33.302Z,13.11
2022-11-22T09:51:41.897Z,12.29
2022-11-22T09:54:57.164Z,12.55
2022-11-22T09:58:25.306Z,12.15
2022-11-22T10:01:31.991Z,11.17
2022-11-22T10:04:37.916Z,11.01
2022-11-22T10:07:48.220Z,11.65
2022-11-22T10:10:52.710Z,12.03
2022-11-22T10:13:59.396Z,11.52
2022-11-22T10:17:07.081Z,11.72
2022-11-22T10:20:26.535Z,12.69
2022-11-22T10:23:28.307Z,13.95
2022-11-22T10:26:34.324Z,14.71
2022-11-22T10:29:40.542Z,14.87
2022-11-22T10:33:09.165Z,14.52
2022-11-22T10:36:26.126Z,14.41
2022-11-22T10:39:46.640Z,14.75
2022-11-22T10:43:07.183Z,14.12
2022-11-22T10:46:25.889Z,14.17
2022-11-22T10:49:46.332Z,13.29
2022-11-22T10:52:54.870Z,12.60
2022-11-22T10:56:05.547Z,13.02
2022-11-22T10:59:41.490Z,13.61
2022-11-22T11:03:18.792Z,13.07
2022-11-22T11:06:49.441Z,14.07
2022-11-22T11:13:28.939Z,13.45
2022-11-22T11:16:34.063Z,13.41
2022-11-22T11:19:39.297Z,13.94
2022-11-22T11:26:19.501Z,14.62
2022-11-22T11:29:24.305Z,14.02
2022-11-22T11:32:25.972Z,12.90
2022-11-22T11:35:29.273Z,11.96
2022-11-22T11:38:32.673Z,11.39
2022-11-22T11:41:40.275Z,10.83
2022-11-22T11:44:45.098Z,10.34
2022-11-22T11:47:46.774Z,9.87
2022-11-22T11:50:48.452Z,9.44
2022-11-22T11:54:05.813Z,9.03
2022-11-22T11:57:23.328Z,8.66
2022-11-22T12:00:27.176Z,8.38
2022-11-22T12:03:28.831Z,8.11
2022-11-22T12:06:32.120Z,7.87
2022-11-22T12:09:36.960Z,7.72
2022-11-22T12:12:47.923Z,7.56
2022-11-22T12:16:14.988Z,7.37
2022-11-22T12:19:29.358Z,7.33
2022-11-22T12:22:56.003Z,7.24
2022-11-22T12:25:58.069Z,7.14
2022-11-22T12:29:00.477Z,7.12
2022-11-22T12:32:11.932Z,7.11
2022-11-22T12:35:17.137Z,7.05
2022-11-22T12:38:21.813Z,7.05
2022-11-22T12:41:27.301Z,7.08
2022-11-22T12:44:33.719Z,7.13
2022-11-22T12:47:40.885Z,7.13
2022-11-22T12:50:47.396Z,7.17
2022-11-22T12:53:49.684Z,7.17
2022-11-22T12:57:06.567Z,7.21
2022-11-22T13:00:19.481Z,7.23
2022-11-22T13:03:32.176Z,7.23
2022-11-22T13:06:48.256Z,7.26
2022-11-22T13:09:57.339Z,7.31
2022-11-22T13:13:00.697Z,7.32
2022-11-22T13:16:07.110Z,7.31
2022-11-22T13:19:14.467Z,7.26
2022-11-22T13:22:50.369Z,7.25
2022-11-22T13:26:10.316Z,7.27
2022-11-22T13:29:23.999Z,7.28
2022-11-22T13:32:30.716Z,7.37
2022-11-22T13:35:33.649Z,7.40
2022-11-22T13:38:35.308Z,7.36
2022-11-22T13:41:48.762Z,7.18
2022-11-22T13:44:56.313Z,7.04
2022-11-22T13:47:58.037Z,6.92
2022-11-22T13:50:59.809Z,6.77
2022-11-22T13:54:20.377Z,6.61
2022-11-22T13:57:42.743Z,6.43
2022-11-22T14:00:44.684Z,6.25
2022-11-22T14:03:46.452Z,6.10
2022-11-22T14:06:49.106Z,5.94
2022-11-22T14:09:50.758Z,5.80
2022-11-22T14:12:55.895Z,5.66
2022-11-22T14:16:08.072Z,5.53
2022-11-22T14:19:18.958Z,5.38
2022-11-22T14:22:44.996Z,5.23
2022-11-22T14:25:49.422Z,5.04
2022-11-22T14:29:28.634Z,4.89
2022-11-22T14:32:57.608Z,4.71
2022-11-22T14:36:09.659Z,4.53
2022-11-22T14:39:47.588Z,4.40
2022-11-22T14:42:52.084Z,4.25
2022-11-22T14:45:58.543Z,4.14
2022-11-22T14:49:14.093Z,4.05
2022-11-22T14:52:23.285Z,3.97
2022-11-22T14:55:32.430Z,3.86
2022-11-22T14:58:38.938Z,3.69
2022-11-22T15:01:52.462Z,3.53
2022-11-22T15:09:14.557Z,3.16
2022-11-22T15:09:16.476Z,3.36
2022-11-22T15:12:41.257Z,2.99
2022-11-22T15:58:04.431Z,1.57
2022-11-22T16:01:18.809Z,1.63
2022-11-22T16:04:33.923Z,1.64
2022-11-22T16:07:37.900Z,1.61
2022-11-22T16:10:42.837Z,1.56
2022-11-22T16:13:44.634Z,1.52
2022-11-22T16:16:46.163Z,1.45
2022-11-22T16:19:47.886Z,1.36
2022-11-22T16:23:08.608Z,1.29
2022-11-22T16:26:30.811Z,1.24
2022-11-22T16:29:33.906Z,1.15
2022-11-22T16:32:35.929Z,1.08
2022-11-22T16:35:37.961Z,1.01
2022-11-22T16:38:39.867Z,0.96
2022-11-22T16:41:41.775Z,0.93
2022-11-22T16:44:43.343Z,0.93
2022-11-22T16:47:54.201Z,0.95
2022-11-22T16:51:24.282Z,0.92
2022-11-22T16:54:28.586Z,0.87
2022-11-22T16:57:30.504Z,0.83
2022-11-22T17:00:32.438Z,0.75
2022-11-22T17:03:36.520Z,0.66
2022-11-22T17:06:38.591Z,0.57
2022-11-22T17:09:40.621Z,0.49
2022-11-22T17:12:43.404Z,0.40
2022-11-22T17:15:45.988Z,0.32
2022-11-22T17:18:48.421Z,0.21
2022-11-22T17:21:50.270Z,0.04
2022-11-22T17:24:51.851Z,-0.14
2022-11-22T17:27:54.307Z,-0.27
2022-11-22T17:30:59.786Z,-0.23
2022-11-22T17:34:01.721Z,-0.16
2022-11-22T17:37:03.523Z,-0.10
2022-11-22T17:40:05.474Z,-0.26
2022-11-22T17:43:07.123Z,-0.55
2022-11-22T17:46:08.939Z,-0.76
2022-11-22T17:49:15.721Z,-0.89
2022-11-22T17:52:18.227Z,-0.96
2022-11-22T17:55:19.872Z,-1.03
2022-11-22T17:58:21.519Z,-1.05
2022-11-22T18:01:23.730Z,-1.05
2022-11-22T18:04:25.414Z,-1.08
2022-11-22T18:07:29.669Z,-1.07
2022-11-22T18:10:31.452Z,-1.07
2022-11-22T18:13:34.071Z,-1.06
2022-11-22T18:16:36.167Z,-1.06
2022-11-22T18:19:41.039Z,-1.03
2022-11-22T18:22:42.732Z,-0.93
2022-11-22T18:25:44.761Z,-0.79
2022-11-22T18:29:02.554Z,-0.78
2022-11-22T18:32:08.648Z,-0.84
2022-11-22T18:35:11.924Z,-0.89
2022-11-22T18:38:13.674Z,-0.94
2022-11-22T18:41:16.766Z,-0.99
2022-11-22T18:44:18.673Z,-1.06
2022-11-22T18:47:20.682Z,-1.19
2022-11-22T18:50:22.260Z,-1.30
2022-11-22T18:53:23.924Z,-1.29
2022-11-22T18:56:26.334Z,-1.21
2022-11-22T18:59:28.148Z,-1.15
2022-11-22T19:02:30.140Z,-1.28
2022-11-22T19:05:31.949Z,-1.45
2022-11-22T19:08:37.623Z,-1.56
2022-11-22T19:11:39.519Z,-1.61
2022-11-22T19:14:41.496Z,-1.60
2022-11-22T19:17:43.214Z,-1.54
2022-11-22T19:20:55.144Z,-1.50
2022-11-22T19:23:57.891Z,-1.52
2022-11-22T19:27:00.036Z,-1.57
2022-11-22T19:30:02.524Z,-1.60
2022-11-22T19:33:04.286Z,-1.62
2022-11-22T19:36:16.049Z,-1.64
2022-11-22T19:39:20.030Z,-1.66
2022-11-22T19:42:21.677Z,-1.72
2022-11-22T19:45:23.305Z,-1.77
2022-11-22T19:48:24.991Z,-1.78
2022-11-22T19:51:28.671Z,-1.77
2022-11-22T19:54:31.178Z,-1.78
2022-11-22T19:57:32.928Z,-1.83
2022-11-22T20:00:34.640Z,-1.83
2022-11-22T20:03:38.529Z,-1.73
2022-11-22T20:06:40.448Z,-1.64
2022-11-22T20:09:42.177Z,-1.82
2022-11-22T20:12:44.191Z,-1.92
2022-11-22T20:15:46.074Z,-1.98
2022-11-22T20:18:48.661Z,-2.06
2022-11-22T20:21:53.009Z,-2.18
2022-11-22T20:24:54.653Z,-2.14
2022-11-22T20:27:56.333Z,-2.04
2022-11-22T20:31:05.445Z,-1.99
2022-11-22T20:34:09.756Z,-2.03
2022-11-22T20:37:11.408Z,-2.07
2022-11-22T20:40:13.058Z,-2.11
2022-11-22T20:43:14.654Z,-2.14
2022-11-22T20:46:24.999Z,-2.23
2022-11-22T20:49:30.846Z,-2.08
2022-11-22T20:52:32.529Z,-1.97
2022-11-22T20:55:34.216Z,-2.23
2022-11-22T20:58:36.383Z,-2.38
2022-11-22T21:01:38.516Z,-2.44
2022-11-22T21:04:40.338Z,-2.52
2022-11-22T21:07:42.037Z,-2.56
2022-11-22T21:10:43.763Z,-2.57
2022-11-22T21:13:45.540Z,-2.53
2022-11-22T21:16:47.370Z,-2.47
2022-11-22T21:19:48.905Z,-2.48
2022-11-22T21:22:54.366Z,-2.44
2022-11-22T21:25:56.291Z,-2.48
2022-11-22T21:28:59.541Z,-2.49
2022-11-22T21:32:01.255Z,-2.39
2022-11-22T21:35:02.916Z,-2.39
2022-11-22T21:38:04.566Z,-2.47
2022-11-22T21:41:38.217Z,-2.51
2022-11-22T21:44:34.106Z,-2.41
2022-11-22T21:47:35.855Z,-2.33
2022-11-22T21:50:37.720Z,-2.27
2022-11-22T21:53:39.422Z,-2.23
2022-11-22T21:56:41.095Z,-2.22
2022-11-22T21:59:42.799Z,-2.21
2022-11-22T22:02:46.516Z,-2.18
2022-11-22T22:05:49.548Z,-2.19
2022-11-22T22:08:51.278Z,-2.23
2022-11-22T22:11:53.130Z,-2.26
2022-11-22T22:14:54.932Z,-2.28
2022-11-22T22:17:56.775Z,-2.30
2022-11-22T22:21:02.154Z,-2.32
2022-11-22T22:24:04.103Z,-2.35
2022-11-22T22:27:06.025Z,-2.36
2022-11-22T22:30:08.970Z,-2.36
2022-11-22T22:33:10.875Z,-2.37
2022-11-22T22:36:13.211Z,-2.38
2022-11-22T22:39:14.923Z,-2.40
2022-11-22T22:42:16.516Z,-2.40
2022-11-22T22:45:18.162Z,-2.41
2022-11-22T22:48:20.578Z,-2.41
2022-11-22T22:51:33.197Z,-2.42
2022-11-22T22:54:36.000Z,-2.43
2022-11-22T22:57:37.689Z,-2.43
2022-11-22T23:00:39.369Z,-2.43
2022-11-22T23:03:41.147Z,-2.43
2022-11-22T23:06:43.973Z,-2.43
2022-11-22T23:09:45.892Z,-2.44
2022-11-22T23:12:47.670Z,-2.44
2022-11-22T23:15:58.290Z,-2.43
2022-11-22T23:19:00.447Z,-2.42
2022-11-22T23:22:03.271Z,-2.43
2022-11-22T23:25:06.494Z,-2.46
2022-11-22T23:28:08.471Z,-2.50
2022-11-22T23:31:13.615Z,-2.52
2022-11-22T23:34:15.358Z,-2.52
2022-11-22T23:37:17.104Z,-2.53
2022-11-22T23:40:18.839Z,-2.57
2022-11-22T23:43:20.542Z,-2.59
2022-11-22T23:46:25.139Z,-2.61
2022-11-22T23:49:26.926Z,-2.63
2022-11-22T23:52:28.556Z,-2.67
2022-11-22T23:55:30.232Z,-2.69
2022-11-22T23:58:32.116Z,-2.69
